This is the latest recevied weather packets stored in our database for station/object GW1542. If no packets are shown the sender has not sent any weather packets the latest 10 day(s).
| Time | Temp. | Humidity | Pressure | Rain* | Wind** | Luminosity | Snow |
|---|---|---|---|---|---|---|---|
| 1777297734 | 12.78° C | 49% | 1023.3 hPa | 0 mm | - | - | - |
| 1777297359 | 12.22° C | 47% | 1023.3 hPa | 0 mm | - | - | - |
| 1777296286 | 11.11° C | 51% | 1023.7 hPa | 0 mm | - | - | - |
| 1777295563 | 10° C | 58% | 1023.7 hPa | 0 mm | - | - | - |
| 1777291238 | 6.11° C | 82% | 1023.7 hPa | 0 mm | - | - | - |
| 1777289802 | 5° C | 88% | 1023.7 hPa | 0 mm | - | - | - |
| 1777285834 | 3.89° C | 93% | 1022.6 hPa | 0 mm | - | - | - |
| 1777283679 | 4.44° C | 92% | 1022.3 hPa | 0 mm | - | - | - |
| 1777278630 | 5.56° C | 88% | 1021.6 hPa | 0 mm | - | - | - |
| 1777276462 | 5.56° C | 88% | 1021.6 hPa | 0 mm | - | - | - |
| 1777274670 | 6.11° C | 87% | 1022 hPa | 0 mm | - | - | - |
| 1777274310 | 6.11° C | 87% | 1022 hPa | 0 mm | - | - | - |
| 1777273609 | 6.11° C | 88% | 1022 hPa | 0 mm | - | - | - |
| 1777271065 | 6.11° C | 88% | 1022 hPa | 0 mm | - | - | - |
| 1777270357 | 6.11° C | 88% | 1022 hPa | 0 mm | - | - | - |
| 1777269979 | 6.11° C | 88% | 1022 hPa | 0 mm | - | - | - |
| 1777269623 | 6.11° C | 88% | 1022 hPa | 0 mm | - | - | - |
| 1777267126 | 6.11° C | 89% | 1022.3 hPa | 0 mm | - | - | - |
| 1777266733 | 6.67° C | 88% | 1022.3 hPa | 0 mm | - | - | - |
| 1777263508 | 6.11° C | 88% | 1022.3 hPa | 0 mm | - | - | - |
| 1777254872 | 7.22° C | 91% | 1021.6 hPa | 0 mm | - | - | - |
| 1777254135 | 6.67° C | 91% | 1021.6 hPa | 0 mm | - | - | - |
| 1777253771 | 6.67° C | 90% | 1021.3 hPa | 0 mm | - | - | - |
* Rain since midnight (hover to see other rain measurements)
** Current wind speed in m/s (hover to see current wind gust speed)